Hurghada, Egypt
Current Conditions -  °F | °C
As of 10:00 PM on Monday 24 Nov 2014 (Local Time) from HEGN Reporting Station
Clear Clear  
Wind Chill: 64°   Ceiling: Unl
Heat Index: 64°   Visibility: 6mi
Dew Point: 54°   Wind: 10mph
Humidity: 68%   Direction: 300°WNW
Pressure: 29.97"   Gusts: NA
Location:  27.23°N, 33.83°E
Report Text: HEGN 242000Z 30009KT CAVOK 18/12 Q1015 NOSIG
Loading
Personal Weather Stations






























Interactive Weather Map New forecast layout! Learn more

10-Day Weather Forecast

Advertisements
Track Severe Weather on mobile